UTAK

Details ICAO UTAK (KRW)
Name TURKMENBASHI
Region Tajikistan, Turkmenistan and Uzbekistan
Timezone Asia/Ashgabat (UTC+5.0)
Plans Departing 37
Arriving 38
Stats Elevation 279 ft / 85 m (AMSL)
Location 40.063500° 53.007200°
Runways 1
Magnetic Variation 6.055° E
Sunrise 2018-10-23 02:47:46 UTC / 2018-10-23 07:47:46 Local
Sunset 2018-10-23 13:39:13 UTC / 2018-10-23 18:39:13 Local
Advertisement - Login to hide

Runways

ID Width Length Bearing (true/mag) Surface Threshold Overrun Markings Lighting
16 144 ft / 44 m 8,221 ft / 2,506 m 166.91° / 160.85° CONCRETE 0 ft / 0 m 0 ft / 0 m APP EDGE THRESHOLD SALS
34 144 ft / 44 m 8,221 ft / 2,506 m 346.91° / 340.86° CONCRETE 0 ft / 0 m 0 ft / 0 m APP EDGE THRESHOLD SALS

Map

Weather


0- 5 10 15 20 25 30 35+ Temperature / °C

Clouds and Precipitation
Forecast for 2018-10-23 06:00 UTC. Updated 6 hours ago

Ground ~20,000 ft ~40,000 ft Winds

METAR

UTAK 230900Z 28006KT 9999 FEW033 BKN200 22/14 Q1017 R16R/CLRD70 NOSIG

TAF

Not found

Frequencies

Tower 124.00 MHz
Ground 121.70 MHz
Approach 120.00 MHz
Warning: Do not use this data for real-world aviation or navigation. No guarantee of current accuracy is given.